Time;durP1;ratioP1;P1;durP2;ratioP2;P2;SDS_P1;SDS_P2;PMS_P1;PMS_P2;Temp;Humidity;BMP_temperature;BMP_pressure;BME280_temperature;BME280_humidity;BME280_pressure;Samples;Min_cycle;Max_cycle;Signal;HPM_P1;HPM_P2
2022/09/10 00:01:45;;;;;;;5.47;1.30;;;12.90;57.70;;;;;;4956764;28;46385;-67
2022/09/10 00:04:13;;;;;;;5.33;1.93;;;13.10;56.40;;;;;;4960685;28;46397;-67
2022/09/10 00:06:40;;;;;;;2.73;1.20;;;13.20;57.20;;;;;;4971849;28;48039;-67
2022/09/10 00:09:06;;;;;;;2.50;1.30;;;13.30;57.00;;;;;;4953150;28;46512;-67
2022/09/10 00:11:33;;;;;;;4.17;1.20;;;13.40;56.70;;;;;;4952839;28;45901;-66
2022/09/10 00:14:00;;;;;;;2.07;1.13;;;13.50;55.50;;;;;;4953850;28;46000;-66
2022/09/10 00:16:27;;;;;;;2.10;1.03;;;13.50;56.50;;;;;;4954432;28;46356;-66
2022/09/10 00:18:53;;;;;;;3.30;1.20;;;13.60;56.50;;;;;;4953944;28;46384;-67
2022/09/10 00:21:20;;;;;;;2.57;1.03;;;13.60;56.30;;;;;;4951725;28;46457;-67
2022/09/10 00:23:46;;;;;;;4.30;1.20;;;13.70;55.40;;;;;;4953367;28;46408;-66
2022/09/10 00:26:15;;;;;;;7.83;1.23;;;13.70;56.40;;;;;;4956915;28;46357;-67
2022/09/10 00:28:42;;;;;;;4.00;1.57;;;13.70;56.30;;;;;;4956613;28;46302;-66
2022/09/10 00:31:08;;;;;;;2.97;1.20;;;13.80;56.10;;;;;;4955347;28;46322;-66
2022/09/10 00:33:34;;;;;;;2.63;1.20;;;13.90;55.20;;;;;;4955034;28;46767;-66
2022/09/10 00:35:59;;;;;;;2.00;1.03;;;13.90;56.10;;;;;;4959140;28;47147;-66
2022/09/10 00:38:30;;;;;;;3.73;1.23;;;13.90;56.20;;;;;;4958494;28;46432;-66
2022/09/10 00:41:03;;;;;;;4.10;1.50;;;13.90;56.40;;;;;;4956370;28;45782;-66
2022/09/10 00:43:58;;;;;;;2.63;1.00;;;13.90;55.60;;;;;;4976538;28;46432;-66
2022/09/10 00:46:32;;;;;;;2.57;0.90;;;13.90;56.60;;;;;;4960208;28;47048;-66
2022/09/10 00:49:03;;;;;;;3.73;1.30;;;13.90;56.70;;;;;;4958241;28;46332;-67
2022/09/10 00:51:32;;;;;;;3.57;1.17;;;13.80;56.80;;;;;;4959117;28;45834;-66
2022/09/10 00:53:59;;;;;;;2.10;1.10;;;13.70;56.30;;;;;;4969344;28;47262;-66
2022/09/10 00:56:27;;;;;;;2.50;1.20;;;13.70;57.40;;;;;;4957644;28;47442;-66
2022/09/10 00:58:53;;;;;;;2.80;1.43;;;13.70;57.70;;;;;;4959608;28;46474;-66
2022/09/10 01:01:19;;;;;;;3.50;1.40;;;13.50;57.80;;;;;;4958707;28;46246;-66
2022/09/10 01:03:45;;;;;;;3.30;1.87;;;13.40;57.40;;;;;;4975306;28;46696;-67
2022/09/10 01:06:12;;;;;;;3.30;1.23;;;13.40;58.50;;;;;;4971582;28;47716;-66
2022/09/10 01:08:38;;;;;;;2.43;1.07;;;13.30;58.70;;;;;;4958170;28;46332;-66
2022/09/10 01:11:30;;;;;;;2.50;1.30;;;13.20;58.80;;;;;;4957159;28;46673;-66
2022/09/10 01:14:16;;;;;;;4.33;1.40;;;13.10;58.00;;;;;;4957208;28;46536;-66
2022/09/10 01:16:47;;;;;;;4.97;1.40;;;13.10;58.10;;;;;;4954835;28;47803;-66
2022/09/10 01:19:40;;;;;;;2.47;1.10;;;13.10;59.40;;;;;;4953978;28;45773;-67
2022/09/10 01:22:08;;;;;;;4.00;1.40;;;13.00;59.40;;;;;;4952146;28;46384;-66
2022/09/10 01:24:47;;;;;;;6.20;1.30;;;12.90;58.80;;;;;;4951790;28;46677;-66
2022/09/10 01:27:34;;;;;;;4.37;1.67;;;12.90;60.00;;;;;;4957343;28;46727;-66
2022/09/10 01:30:14;;;;;;;3.77;1.40;;;12.80;60.10;;;;;;4960256;28;46289;-66
2022/09/10 01:32:58;;;;;;;5.80;1.43;;;12.70;60.20;;;;;;4956958;28;46395;-67
2022/09/10 01:35:31;;;;;;;4.20;1.43;;;12.60;59.50;;;;;;4956839;28;46361;-67
2022/09/10 01:38:00;;;;;;;4.23;1.37;;;12.60;59.50;;;;;;4955682;28;48217;-66
2022/09/10 01:40:29;;;;;;;8.43;1.30;;;12.50;60.50;;;;;;4955514;28;46521;-66
2022/09/10 01:43:04;;;;;;;3.57;1.50;;;12.50;60.60;;;;;;4956128;28;45861;-67
2022/09/10 01:45:39;;;;;;;5.03;1.17;;;12.50;60.00;;;;;;4952605;28;46552;-66
2022/09/10 01:48:11;;;;;;;2.30;1.20;;;12.40;60.90;;;;;;4957412;28;46765;-66
2022/09/10 01:50:51;;;;;;;4.10;1.30;;;12.40;60.90;;;;;;4953521;28;46560;-67
2022/09/10 01:53:36;;;;;;;3.17;1.33;;;12.40;60.00;;;;;;4969454;28;46362;-66
2022/09/10 01:56:07;;;;;;;2.00;1.07;;;12.40;61.10;;;;;;4955695;28;46576;-66
2022/09/10 01:58:42;;;;;;;4.27;1.23;;;12.40;61.10;;;;;;4951794;28;46515;-66
2022/09/10 02:01:44;;;;;;;5.77;1.23;;;12.40;61.10;;;;;;4952695;28;46440;-66
2022/09/10 02:04:13;;;;;;;4.10;1.40;;;12.30;60.40;;;;;;4954004;28;46693;-66
2022/09/10 02:06:42;;;;;;;3.87;1.20;;;12.30;61.40;;;;;;4968964;28;46585;-67
2022/09/10 02:09:09;;;;;;;4.63;1.40;;;12.30;61.50;;;;;;4958870;28;46390;-67
2022/09/10 02:11:46;;;;;;;9.03;1.40;;;12.30;61.50;;;;;;4956273;28;46091;-66
2022/09/10 02:14:14;;;;;;;4.00;1.40;;;12.40;60.80;;;;;;4958749;28;46491;-67
2022/09/10 02:16:45;;;;;;;4.80;1.40;;;12.40;61.70;;;;;;4957761;28;46452;-66
2022/09/10 02:19:13;;;;;;;2.00;1.30;;;12.40;61.70;;;;;;4958646;28;46646;-66
2022/09/10 02:21:39;;;;;;;4.20;1.60;;;12.40;61.70;;;;;;4954371;28;45799;-66
2022/09/10 02:24:08;;;;;;;5.40;1.50;;;12.40;61.00;;;;;;4956364;28;46432;-66
2022/09/10 02:26:38;;;;;;;3.90;1.50;;;12.40;61.90;;;;;;4957727;28;46311;-66
2022/09/10 02:29:05;;;;;;;2.73;1.53;;;12.30;61.90;;;;;;4956633;28;46522;-65
2022/09/10 02:31:31;;;;;;;7.03;1.90;;;12.30;61.10;;;;;;4956009;28;45768;-65
2022/09/10 02:33:58;;;;;;;6.40;2.10;;;12.30;61.10;;;;;;4958174;28;46693;-65
2022/09/10 02:36:24;;;;;;;6.10;1.50;;;12.30;62.10;;;;;;4966496;28;46590;-65
2022/09/10 02:38:55;;;;;;;3.60;1.13;;;12.30;62.10;;;;;;4951227;28;46374;-65
2022/09/10 02:41:24;;;;;;;3.30;1.37;;;12.30;62.10;;;;;;4954386;28;46637;-66
2022/09/10 02:43:50;;;;;;;3.63;1.20;;;12.40;61.10;;;;;;4954339;28;45809;-66
2022/09/10 02:46:16;;;;;;;4.13;1.30;;;12.40;62.20;;;;;;4953753;28;46602;-65
2022/09/10 02:48:42;;;;;;;3.10;1.57;;;12.40;62.00;;;;;;4956429;28;46351;-65
2022/09/10 02:51:08;;;;;;;2.63;1.33;;;12.50;62.10;;;;;;4952348;28;45863;-64
2022/09/10 02:53:34;;;;;;;8.93;1.40;;;12.50;60.90;;;;;;4954994;28;46297;-65
2022/09/10 02:56:01;;;;;;;2.27;1.27;;;12.50;61.70;;;;;;4952770;28;46554;-64
2022/09/10 02:58:32;;;;;;;2.47;1.10;;;12.60;61.70;;;;;;4957865;28;46635;-65
2022/09/10 03:01:11;;;;;;;5.93;1.40;;;12.60;61.70;;;;;;4962503;28;46695;-64
2022/09/10 03:03:38;;;;;;;3.70;1.27;;;12.70;60.50;;;;;;4955077;28;46680;-64
2022/09/10 03:06:04;;;;;;;3.13;1.40;;;12.70;61.30;;;;;;4954918;28;46394;-64
2022/09/10 03:08:30;;;;;;;3.17;1.20;;;12.70;61.20;;;;;;4953874;28;46380;-64
2022/09/10 03:10:58;;;;;;;4.57;1.40;;;12.70;61.20;;;;;;4948144;28;46527;-65
2022/09/10 03:13:26;;;;;;;2.77;1.37;;;12.80;60.20;;;;;;4952133;28;46407;-65
2022/09/10 03:15:57;;;;;;;5.60;1.17;;;12.80;61.20;;;;;;4951526;28;46488;-65
2022/09/10 03:18:24;;;;;;;2.70;1.23;;;12.80;61.20;;;;;;4954598;28;46473;-64
2022/09/10 03:20:50;;;;;;;7.90;1.47;;;12.90;61.20;;;;;;4967419;28;46309;-65
2022/09/10 03:23:17;;;;;;;2.97;1.30;;;12.90;61.00;;;;;;4956787;28;46344;-64
2022/09/10 03:25:43;;;;;;;4.10;1.13;;;12.90;59.90;;;;;;4957256;28;45872;-64
2022/09/10 03:28:09;;;;;;;2.40;1.10;;;13.00;60.80;;;;;;4954227;28;47256;-64
2022/09/10 03:30:36;;;;;;;6.00;1.30;;;13.00;60.60;;;;;;4953400;28;46485;-64
2022/09/10 03:33:03;;;;;;;2.90;1.17;;;13.10;60.40;;;;;;4957198;28;46467;-66
2022/09/10 03:35:29;;;;;;;3.30;0.97;;;13.20;59.20;;;;;;4948489;28;46341;-66
2022/09/10 03:37:55;;;;;;;5.80;1.40;;;13.30;60.00;;;;;;4955510;28;47047;-66
2022/09/10 03:40:22;;;;;;;2.43;1.20;;;13.40;59.90;;;;;;4954604;28;45809;-66
2022/09/10 03:42:47;;;;;;;2.87;1.00;;;13.40;59.60;;;;;;4955990;28;46378;-65
2022/09/10 03:45:14;;;;;;;2.27;1.20;;;13.40;58.40;;;;;;4955569;28;45915;-64
2022/09/10 03:47:40;;;;;;;8.03;1.20;;;13.40;59.50;;;;;;4952705;28;46645;-64
2022/09/10 03:50:06;;;;;;;2.47;1.13;;;13.40;59.50;;;;;;4953249;28;46412;-65
2022/09/10 03:52:32;;;;;;;2.63;1.10;;;13.40;59.70;;;;;;4955954;28;46359;-65
2022/09/10 03:54:58;;;;;;;3.13;1.10;;;13.30;58.80;;;;;;4954363;28;46735;-65
2022/09/10 03:57:25;;;;;;;2.53;1.00;;;13.30;60.00;;;;;;4953520;28;46445;-65
2022/09/10 03:59:51;;;;;;;2.00;1.00;;;13.20;60.00;;;;;;4949323;28;46323;-65
2022/09/10 04:02:17;;;;;;;8.30;1.30;;;13.20;60.00;;;;;;4954735;28;46391;-65
2022/09/10 04:04:43;;;;;;;2.37;1.20;;;13.10;59.20;;;;;;4951364;28;46412;-65
2022/09/10 04:07:09;;;;;;;2.03;1.00;;;13.20;60.10;;;;;;4954205;28;46330;-65
2022/09/10 04:09:35;;;;;;;3.20;1.00;;;13.10;60.10;;;;;;4956096;28;46312;-65
2022/09/10 04:12:02;;;;;;;2.77;1.03;;;13.10;60.00;;;;;;4952966;28;46662;-65
2022/09/10 04:14:28;;;;;;;4.23;1.10;;;13.20;58.90;;;;;;4953456;28;46282;-66
2022/09/10 04:16:57;;;;;;;1.80;1.00;;;13.20;59.90;;;;;;4953947;28;46302;-65
2022/09/10 04:19:23;;;;;;;4.40;1.40;;;13.20;59.90;;;;;;4950483;28;46374;-65
2022/09/10 04:21:51;;;;;;;3.13;1.30;;;13.20;59.70;;;;;;4955465;28;46488;-65
2022/09/10 04:24:17;;;;;;;2.40;1.37;;;13.20;59.80;;;;;;4955425;28;46384;-65
2022/09/10 04:26:43;;;;;;;3.87;1.50;;;13.20;59.70;;;;;;4951489;28;47354;-65
2022/09/10 04:29:10;;;;;;;2.00;1.03;;;13.20;59.70;;;;;;4954231;28;46741;-65
2022/09/10 04:31:36;;;;;;;5.20;1.13;;;13.20;59.70;;;;;;4956622;28;46318;-65
2022/09/10 04:34:02;;;;;;;14.83;1.40;;;13.20;58.70;;;;;;4953068;28;46497;-64
2022/09/10 04:36:29;;;;;;;2.80;1.20;;;13.20;59.70;;;;;;4953349;28;46459;-65
2022/09/10 04:38:54;;;;;;;1.87;1.00;;;13.30;59.50;;;;;;4955643;28;46477;-65
2022/09/10 04:41:20;;;;;;;4.17;1.13;;;13.40;59.30;;;;;;4955664;28;46421;-65
2022/09/10 04:43:46;;;;;;;3.30;1.30;;;13.50;59.10;;;;;;4954351;28;46451;-65
2022/09/10 04:46:12;;;;;;;4.53;1.20;;;13.50;59.40;;;;;;4955442;28;46322;-65
2022/09/10 04:48:38;;;;;;;3.17;1.23;;;13.60;58.80;;;;;;4967781;28;46349;-65
2022/09/10 04:51:05;;;;;;;4.80;1.23;;;13.60;58.80;;;;;;4955524;28;46444;-65
2022/09/10 04:53:33;;;;;;;8.63;1.00;;;13.50;58.10;;;;;;4959028;28;46610;-65
2022/09/10 04:55:59;;;;;;;2.50;1.10;;;13.50;59.10;;;;;;4956292;28;46458;-66
2022/09/10 04:58:25;;;;;;;2.83;1.37;;;13.50;59.10;;;;;;4954005;28;46395;-65
2022/09/10 05:00:50;;;;;;;3.50;1.40;;;13.50;59.10;;;;;;4956223;28;46385;-65
2022/09/10 05:03:17;;;;;;;3.77;1.47;;;13.50;59.20;;;;;;4956650;28;46293;-65
2022/09/10 05:05:43;;;;;;;2.90;1.17;;;13.50;58.00;;;;;;4952470;28;46554;-65
2022/09/10 05:08:09;;;;;;;2.90;1.43;;;13.50;59.10;;;;;;4947679;28;45856;-65
2022/09/10 05:10:35;;;;;;;3.07;1.30;;;13.60;59.00;;;;;;4955225;28;46419;-65
2022/09/10 05:13:01;;;;;;;3.70;1.10;;;13.70;58.80;;;;;;4956250;28;45800;-65
2022/09/10 05:15:27;;;;;;;3.10;1.17;;;13.70;57.70;;;;;;4951451;28;46293;-65
2022/09/10 05:17:54;;;;;;;1.87;0.90;;;13.70;58.80;;;;;;4955557;28;46433;-65
2022/09/10 05:20:21;;;;;;;2.23;1.10;;;13.80;58.70;;;;;;4957331;28;46444;-65
2022/09/10 05:22:46;;;;;;;3.37;1.20;;;13.90;58.70;;;;;;4972634;28;46474;-65
2022/09/10 05:25:12;;;;;;;1.77;0.97;;;13.90;57.40;;;;;;4955943;28;46188;-65
2022/09/10 05:27:38;;;;;;;5.23;1.70;;;14.00;58.50;;;;;;4956799;28;46392;-65
2022/09/10 05:30:05;;;;;;;5.13;1.17;;;14.10;58.30;;;;;;4958412;28;46428;-65
2022/09/10 05:32:31;;;;;;;4.20;1.20;;;14.10;58.30;;;;;;4959782;28;45960;-65
2022/09/10 05:34:57;;;;;;;4.90;1.50;;;14.10;58.20;;;;;;4959237;28;46372;-65
2022/09/10 05:37:23;;;;;;;2.60;1.60;;;14.20;58.10;;;;;;4965764;28;46459;-65
2022/09/10 05:39:49;;;;;;;4.63;1.40;;;14.20;58.10;;;;;;4954063;28;46402;-65
2022/09/10 05:42:16;;;;;;;5.67;2.20;;;14.30;58.40;;;;;;4955885;28;46653;-65
2022/09/10 05:44:41;;;;;;;11.20;6.20;;;14.30;58.00;;;;;;4966789;28;46355;-65
2022/09/10 05:47:07;;;;;;;4.47;1.40;;;14.30;58.20;;;;;;4961298;28;46072;-65
2022/09/10 05:49:33;;;;;;;7.37;1.80;;;14.30;58.20;;;;;;4960857;28;46372;-65
2022/09/10 05:51:59;;;;;;;3.47;2.40;;;14.30;58.20;;;;;;4961866;28;46562;-65
2022/09/10 05:54:25;;;;;;;4.80;1.33;;;14.40;58.30;;;;;;4977665;28;47212;-65
2022/09/10 05:56:54;;;;;;;4.80;1.53;;;14.30;58.30;;;;;;4960192;28;46202;-65
2022/09/10 05:59:21;;;;;;;1.70;1.00;;;14.40;58.50;;;;;;4958640;28;46301;-66
2022/09/10 06:01:50;;;;;;;4.67;1.60;;;14.40;58.30;;;;;;4961359;28;45912;-65
2022/09/10 06:04:17;;;;;;;2.40;1.40;;;14.50;58.60;;;;;;4957583;28;47282;-65
2022/09/10 06:06:44;;;;;;;3.03;1.83;;;14.40;58.40;;;;;;4959406;28;46431;-65
2022/09/10 06:09:10;;;;;;;9.93;1.83;;;14.40;58.40;;;;;;4957268;28;46383;-65
2022/09/10 06:11:36;;;;;;;2.87;1.70;;;14.40;58.60;;;;;;4952746;28;46420;-65
2022/09/10 06:14:02;;;;;;;2.70;1.47;;;14.50;58.60;;;;;;4954476;28;46352;-66
2022/09/10 06:16:28;;;;;;;5.10;1.20;;;14.50;58.60;;;;;;4955499;28;45935;-65
2022/09/10 06:18:54;;;;;;;4.93;1.83;;;14.60;58.60;;;;;;4958057;28;46448;-65
2022/09/10 06:21:20;;;;;;;6.63;2.93;;;14.60;58.80;;;;;;4951534;28;46198;-66
2022/09/10 06:23:46;;;;;;;7.67;3.40;;;14.60;57.80;;;;;;4953471;28;47051;-65
2022/09/10 06:26:15;;;;;;;4.47;2.77;;;14.60;58.80;;;;;;4951702;28;46333;-66
2022/09/10 06:28:42;;;;;;;3.13;1.93;;;14.70;58.60;;;;;;4954288;28;46239;-66
2022/09/10 06:31:10;;;;;;;3.47;1.90;;;14.80;58.50;;;;;;4954026;28;46450;-67
2022/09/10 06:33:36;;;;;;;7.00;1.53;;;14.70;58.00;;;;;;4952831;28;46372;-66
2022/09/10 06:36:02;;;;;;;3.20;1.30;;;14.70;59.00;;;;;;4954583;28;45952;-66
2022/09/10 06:38:32;;;;;;;4.00;2.20;;;14.70;58.80;;;;;;4956161;28;46363;-66
2022/09/10 06:41:00;;;;;;;9.13;4.53;;;14.80;58.90;;;;;;4953108;28;46368;-66
2022/09/10 06:43:27;;;;;;;33.23;15.50;;;15.00;57.80;;;;;;4956282;28;46434;-65
2022/09/10 06:45:54;;;;;;;24.70;11.97;;;15.00;58.80;;;;;;4957490;28;46416;-66
2022/09/10 06:48:20;;;;;;;30.20;14.17;;;15.00;58.70;;;;;;4958163;28;46262;-66
2022/09/10 06:50:50;;;;;;;24.47;11.63;;;15.10;58.80;;;;;;4957652;28;46763;-66
2022/09/10 06:53:16;;;;;;;43.73;19.93;;;15.10;58.90;;;;;;4956321;28;46838;-66
2022/09/10 06:55:41;;;;;;;23.00;11.17;;;15.20;57.80;;;;;;4953241;28;46464;-67
2022/09/10 06:58:08;;;;;;;15.03;7.30;;;15.30;58.80;;;;;;4956442;28;46301;-65
2022/09/10 07:00:34;;;;;;;22.47;13.13;;;15.40;58.60;;;;;;4956330;28;46667;-66
2022/09/10 07:03:00;;;;;;;17.77;8.67;;;15.50;58.50;;;;;;4956464;28;46722;-66
2022/09/10 07:05:27;;;;;;;18.70;10.03;;;15.60;57.20;;;;;;4956563;28;46451;-66
2022/09/10 07:07:54;;;;;;;30.57;14.13;;;15.70;58.40;;;;;;4952745;28;46574;-64
2022/09/10 07:10:19;;;;;;;33.47;12.43;;;15.70;58.40;;;;;;4953589;28;46433;-65
2022/09/10 07:12:45;;;;;;;14.50;6.23;;;15.80;58.40;;;;;;4956813;28;47132;-65
2022/09/10 07:15:11;;;;;;;26.13;12.77;;;15.80;58.30;;;;;;4953717;28;46392;-65
2022/09/10 07:17:36;;;;;;;23.20;11.47;;;15.90;58.50;;;;;;4953988;28;46423;-65
2022/09/10 07:20:03;;;;;;;37.17;16.80;;;15.90;58.30;;;;;;4951873;28;46286;-65
2022/09/10 07:22:28;;;;;;;116.93;47.10;;;15.90;58.20;;;;;;4959001;28;46585;-65
2022/09/10 07:24:54;;;;;;;21.57;10.90;;;16.10;58.10;;;;;;4957825;28;46345;-65
2022/09/10 07:27:20;;;;;;;25.17;12.73;;;16.10;57.70;;;;;;4951985;28;46357;-66
2022/09/10 07:29:46;;;;;;;19.90;10.17;;;16.20;57.50;;;;;;4952219;28;46595;-66
2022/09/10 07:32:11;;;;;;;72.20;34.53;;;16.10;57.70;;;;;;4953268;28;46425;-66
2022/09/10 07:34:37;;;;;;;21.87;13.47;;;16.10;58.30;;;;;;4954192;28;46636;-66
2022/09/10 07:37:03;;;;;;;4.80;2.70;;;16.20;58.00;;;;;;4955141;28;45904;-66
2022/09/10 07:39:29;;;;;;;2.60;1.97;;;16.30;57.60;;;;;;4965295;28;46609;-66
2022/09/10 07:41:54;;;;;;;3.30;1.40;;;16.30;57.70;;;;;;4955269;28;48288;-66
2022/09/10 07:44:20;;;;;;;4.10;1.50;;;16.40;57.50;;;;;;4958280;28;46910;-66
2022/09/10 07:46:45;;;;;;;6.43;1.23;;;16.50;57.70;;;;;;4958427;28;46328;-66
2022/09/10 07:49:11;;;;;;;3.40;1.60;;;16.60;57.70;;;;;;4951860;28;46289;-66
2022/09/10 07:51:38;;;;;;;2.40;1.10;;;16.90;58.00;;;;;;4954148;28;46404;-66
2022/09/10 07:54:04;;;;;;;4.00;1.20;;;17.20;57.40;;;;;;4954841;28;46431;-66
2022/09/10 07:56:33;;;;;;;6.90;1.30;;;17.50;56.60;;;;;;4954332;28;45853;-66
2022/09/10 07:58:58;;;;;;;2.23;1.10;;;17.70;55.90;;;;;;4953410;28;46444;-66
2022/09/10 08:01:24;;;;;;;2.30;1.00;;;17.90;55.40;;;;;;4951149;28;46661;-66
2022/09/10 08:03:50;;;;;;;2.17;1.00;;;17.90;55.50;;;;;;4952647;28;46456;-66
2022/09/10 08:06:15;;;;;;;3.23;1.10;;;17.90;55.40;;;;;;4953820;28;45802;-66
2022/09/10 08:08:41;;;;;;;5.73;1.00;;;18.00;55.10;;;;;;4957685;28;46475;-66
2022/09/10 08:11:11;;;;;;;2.83;1.10;;;18.10;55.00;;;;;;4952914;28;46360;-66
2022/09/10 08:13:38;;;;;;;1.90;0.90;;;18.20;53.90;;;;;;4954679;28;46363;-66
2022/09/10 08:16:06;;;;;;;5.87;1.07;;;18.20;54.80;;;;;;4953786;28;46572;-66
2022/09/10 08:18:31;;;;;;;3.20;1.10;;;18.30;54.70;;;;;;4950526;28;46347;-66
2022/09/10 08:20:57;;;;;;;3.03;1.13;;;18.20;54.40;;;;;;4947355;28;48506;-69
2022/09/10 08:23:23;;;;;;;2.63;1.10;;;18.50;53.30;;;;;;4952481;28;46504;-66
2022/09/10 08:25:50;;;;;;;4.67;1.10;;;18.50;54.30;;;;;;4959193;28;46582;-67
2022/09/10 08:28:21;;;;;;;4.23;1.83;;;18.50;53.80;;;;;;4957859;28;46671;-65
2022/09/10 08:30:56;;;;;;;2.77;1.57;;;18.50;53.40;;;;;;4954378;28;48596;-69
2022/09/10 08:33:23;;;;;;;4.50;1.40;;;;;;;;;;4957426;28;46460;-68
2022/09/10 08:35:56;;;;;;;2.83;1.00;;;18.80;51.60;;;;;;4958103;28;46583;-64
2022/09/10 08:38:29;;;;;;;5.07;1.40;;;19.10;51.60;;;;;;4972813;28;46419;-66
2022/09/10 08:40:56;;;;;;;2.60;1.50;;;19.30;51.00;;;;;;4957228;28;48375;-66
2022/09/10 08:43:47;;;;;;;2.40;1.07;;;19.50;50.60;;;;;;4964508;28;46074;-66
2022/09/10 08:46:25;;;;;;;1.90;1.00;;;19.60;49.50;;;;;;4976731;28;46445;-65
2022/09/10 08:49:25;;;;;;;2.67;1.00;;;19.70;49.10;;;;;;4960305;28;46556;-69
2022/09/10 08:52:03;;;;;;;2.13;0.90;;;19.60;48.40;;;;;;4960706;28;46992;-66
2022/09/10 08:54:36;;;;;;;5.00;1.30;;;19.60;48.30;;;;;;4959149;28;46480;-66
2022/09/10 08:57:06;;;;;;;5.27;1.40;;;19.40;47.50;;;;;;4961837;28;46676;-65
2022/09/10 08:59:43;;;;;;;3.87;1.23;;;19.20;48.40;;;;;;4980126;28;46396;-67
2022/09/10 09:02:22;;;;;;;4.23;1.20;;;19.20;48.30;;;;;;4964921;28;47013;-66
2022/09/10 09:05:06;;;;;;;3.20;1.40;;;19.10;47.00;;;;;;4962467;28;46466;-66
2022/09/10 09:07:38;;;;;;;2.03;0.80;;;18.80;47.60;;;;;;4963159;28;46583;-66
2022/09/10 09:10:24;;;;;;;4.77;1.10;;;19.00;47.30;;;;;;4962754;28;46419;-66
2022/09/10 09:12:57;;;;;;;3.10;1.17;;;19.10;46.90;;;;;;4962673;28;46471;-65
2022/09/10 09:15:30;;;;;;;2.50;1.17;;;19.60;45.50;;;;;;4961406;28;46840;-67
2022/09/10 09:18:24;;;;;;;2.50;0.87;;;19.50;46.80;;;;;;4960900;28;45896;-65
2022/09/10 09:20:55;;;;;;;2.40;1.00;;;19.50;46.00;;;;;;4963044;28;46412;-64
2022/09/10 09:23:40;;;;;;;2.93;0.90;;;19.60;45.90;;;;;;4962574;28;46404;-64
2022/09/10 09:26:12;;;;;;;3.20;0.80;;;19.40;45.80;;;;;;4963687;28;46755;-66
2022/09/10 09:28:58;;;;;;;3.00;1.00;;;19.20;45.70;;;;;;4962632;28;46353;-66
2022/09/10 09:31:29;;;;;;;3.50;1.13;;;19.00;46.40;;;;;;4962146;28;46333;-67
2022/09/10 09:34:00;;;;;;;2.53;1.00;;;18.80;45.20;;;;;;4960906;28;46791;-66
2022/09/10 09:36:34;;;;;;;3.70;1.10;;;18.70;46.50;;;;;;4961115;28;46491;-66
2022/09/10 09:39:02;;;;;;;3.23;1.10;;;18.90;45.40;;;;;;4961767;28;46407;-67
2022/09/10 09:41:41;;;;;;;4.33;1.10;;;18.70;45.80;;;;;;4961612;28;45870;-66
2022/09/10 09:44:30;;;;;;;3.67;1.07;;;18.60;46.40;;;;;;4959692;28;47503;-67
2022/09/10 09:46:56;;;;;;;1.80;0.80;;;18.50;46.30;;;;;;4958860;28;46443;-65
2022/09/10 09:49:24;;;;;;;3.40;0.90;;;18.40;46.20;;;;;;4962989;28;46550;-65
2022/09/10 09:51:51;;;;;;;2.53;1.03;;;18.40;46.20;;;;;;4963791;28;46527;-65
2022/09/10 09:54:27;;;;;;;2.43;0.93;;;18.50;46.30;;;;;;4961219;28;46372;-68
2022/09/10 09:56:57;;;;;;;2.20;0.87;;;18.60;46.40;;;;;;4960758;28;46339;-64
2022/09/10 09:59:33;;;;;;;3.00;1.10;;;18.70;46.00;;;;;;4961344;28;46276;-61
2022/09/10 10:02:23;;;;;;;3.70;1.00;;;18.90;45.50;;;;;;4960455;28;45992;-64
2022/09/10 10:05:25;;;;;;;3.30;0.90;;;19.20;44.70;;;;;;4960041;28;48710;-62
2022/09/10 10:07:51;;;;;;;2.10;1.00;;;19.50;44.10;;;;;;4939137;28;46440;-62
2022/09/10 10:10:24;;;;;;;3.03;0.90;;;19.70;43.60;;;;;;4955319;28;46345;-62
2022/09/10 10:12:51;;;;;;;4.53;0.90;;;19.90;42.90;;;;;;4960031;28;46416;-62
2022/09/10 10:15:40;;;;;;;3.20;1.10;;;19.90;43.10;;;;;;4963148;28;46633;-62
2022/09/10 10:18:32;;;;;;;4.23;1.03;;;19.70;43.10;;;;;;4961934;28;46478;-62
2022/09/10 10:21:35;;;;;;;3.80;1.20;;;19.50;43.90;;;;;;4956678;28;46601;-65
2022/09/10 10:24:02;;;;;;;4.43;1.00;;;19.30;44.20;;;;;;4960063;28;46552;-64
2022/09/10 10:26:36;;;;;;;4.13;1.40;;;19.40;43.80;;;;;;4977177;28;47208;-66
2022/09/10 10:29:20;;;;;;;2.37;0.97;;;19.60;43.60;;;;;;4975694;28;46341;-67
2022/09/10 10:31:48;;;;;;;2.77;0.80;;;19.80;43.00;;;;;;4960982;28;46352;-63
2022/09/10 10:34:36;;;;;;;2.57;1.23;;;19.70;40.20;;;;;;4952754;28;46160;-65
2022/09/10 10:37:08;;;;;;;2.60;0.97;;;19.80;41.70;;;;;;4954231;28;47671;-63
2022/09/10 10:39:59;;;;;;;2.63;1.00;;;20.00;42.20;;;;;;4956013;28;46289;-64
2022/09/10 10:42:33;;;;;;;6.70;1.10;;;20.00;40.50;;;;;;4952178;28;46405;-65
2022/09/10 10:45:15;;;;;;;3.03;1.07;;;20.10;39.90;;;;;;4953931;28;46464;-65
2022/09/10 10:47:54;;;;;;;3.97;1.20;;;20.70;39.50;;;;;;4955735;28;48959;-65
2022/09/10 10:50:41;;;;;;;2.93;1.00;;;20.60;38.80;;;;;;4956468;28;46495;-64
2022/09/10 10:53:45;;;;;;;2.00;1.10;;;20.80;38.90;;;;;;4953747;28;46350;-65
2022/09/10 10:56:28;;;;;;;3.33;1.20;;;20.70;38.70;;;;;;4957049;28;46378;-65
2022/09/10 10:59:03;;;;;;;5.17;1.13;;;20.30;38.80;;;;;;4953155;28;46683;-65
2022/09/10 11:01:34;;;;;;;3.03;1.00;;;19.70;40.10;;;;;;4951940;28;46359;-66
2022/09/10 11:04:36;;;;;;;3.97;1.20;;;19.70;41.00;;;;;;4957098;28;46408;-65
2022/09/10 11:07:28;;;;;;;7.30;1.00;;;19.70;41.60;;;;;;4953798;28;46304;-65
2022/09/10 11:09:57;;;;;;;2.50;1.10;;;19.90;41.90;;;;;;4965880;28;46438;-65
2022/09/10 11:12:34;;;;;;;3.20;0.97;;;20.00;41.60;;;;;;4952400;28;46446;-65
2022/09/10 11:15:34;;;;;;;3.50;1.07;;;20.00;41.00;;;;;;4957769;28;46416;-66
2022/09/10 11:18:26;;;;;;;2.53;0.80;;;20.00;41.00;;;;;;4945603;28;46462;-65
2022/09/10 11:20:57;;;;;;;4.83;1.10;;;19.80;41.40;;;;;;4959962;28;46467;-65
2022/09/10 11:23:36;;;;;;;2.83;1.10;;;19.60;41.90;;;;;;4959504;28;46460;-65
2022/09/10 11:26:14;;;;;;;3.43;1.30;;;19.60;42.40;;;;;;4960441;28;47028;-64
2022/09/10 11:29:19;;;;;;;6.80;1.97;;;19.70;42.40;;;;;;4958055;28;46519;-66
2022/09/10 11:31:51;;;;;;;4.93;1.33;;;19.90;42.00;;;;;;4959539;28;51849;-66
2022/09/10 11:34:34;;;;;;;5.47;1.47;;;19.80;42.80;;;;;;4959728;28;46604;-66
2022/09/10 11:37:24;;;;;;;5.53;1.57;;;19.80;42.00;;;;;;4957951;28;46353;-65
2022/09/10 11:39:52;;;;;;;4.17;1.10;;;19.90;41.70;;;;;;4960430;28;46456;-64
2022/09/10 11:42:32;;;;;;;4.40;1.17;;;19.90;41.70;;;;;;4958078;28;46281;-67
2022/09/10 11:45:24;;;;;;;5.23;1.40;;;19.70;40.90;;;;;;4960824;28;46499;-65
2022/09/10 11:48:17;;;;;;;3.10;1.10;;;19.80;41.00;;;;;;4959858;28;46828;-65
2022/09/10 11:50:48;;;;;;;5.53;1.60;;;19.60;41.30;;;;;;4964583;28;47125;-65
2022/09/10 11:53:18;;;;;;;9.60;1.53;;;19.80;40.80;;;;;;4959519;28;47158;-64
2022/09/10 11:56:03;;;;;;;3.63;1.20;;;20.30;40.30;;;;;;4958495;28;46699;-64
2022/09/10 11:58:47;;;;;;;8.83;1.40;;;20.70;39.10;;;;;;4960120;28;46766;-64
2022/09/10 12:01:44;;;;;;;2.57;1.00;;;20.40;37.70;;;;;;4960268;28;46447;-65
2022/09/10 12:04:26;;;;;;;3.43;1.20;;;20.10;38.10;;;;;;4958746;28;46550;-64
2022/09/10 12:07:08;;;;;;;2.53;1.00;;;20.20;38.60;;;;;;4959375;28;46429;-65
2022/09/10 12:09:51;;;;;;;5.03;1.20;;;20.00;39.40;;;;;;4958210;28;46447;-65
2022/09/10 12:12:28;;;;;;;3.43;1.50;;;20.00;39.60;;;;;;4960383;28;45819;-65
2022/09/10 12:14:54;;;;;;;3.80;1.20;;;19.90;39.50;;;;;;4957454;28;47084;-62
2022/09/10 12:17:28;;;;;;;3.70;1.00;;;19.80;39.50;;;;;;4957647;28;46498;-65
2022/09/10 12:19:57;;;;;;;6.90;1.20;;;19.60;40.70;;;;;;4959102;28;46694;-65
2022/09/10 12:22:30;;;;;;;5.90;0.90;;;19.60;41.20;;;;;;4959425;28;46831;-65
2022/09/10 12:25:17;;;;;;;4.20;1.00;;;19.80;41.00;;;;;;4959337;28;47273;-66
2022/09/10 12:27:50;;;;;;;3.43;1.00;;;19.90;40.60;;;;;;4957618;28;46484;-66
2022/09/10 12:30:33;;;;;;;3.60;1.50;;;20.10;39.30;;;;;;4959758;28;46545;-65
2022/09/10 12:33:20;;;;;;;3.60;1.20;;;19.90;38.50;;;;;;4957690;28;46415;-65
2022/09/10 12:35:50;;;;;;;4.43;0.90;;;19.90;39.10;;;;;;4958613;28;47440;-65
2022/09/10 12:38:53;;;;;;;2.43;1.20;;;19.70;38.80;;;;;;4958579;28;46841;-65
2022/09/10 12:41:21;;;;;;;2.93;0.97;;;19.70;38.90;;;;;;4959514;28;46384;-65
2022/09/10 12:43:47;;;;;;;2.23;0.93;;;19.70;38.40;;;;;;4958157;28;46679;-64
2022/09/10 12:46:13;;;;;;;2.23;0.90;;;19.70;38.90;;;;;;4957802;28;46593;-66
2022/09/10 12:48:46;;;;;;;3.70;0.97;;;19.80;38.70;;;;;;4958128;28;46525;-65
2022/09/10 12:51:17;;;;;;;2.90;1.10;;;20.00;38.70;;;;;;4956840;28;46435;-65
2022/09/10 12:54:08;;;;;;;2.20;0.80;;;21.00;35.90;;;;;;4955309;28;46405;-65
2022/09/10 12:57:02;;;;;;;6.40;1.20;;;21.00;36.70;;;;;;4956684;28;46887;-64
2022/09/10 12:59:59;;;;;;;2.10;0.90;;;21.00;36.00;;;;;;4957782;28;46736;-65
2022/09/10 13:02:30;;;;;;;4.73;0.80;;;21.20;35.20;;;;;;4956899;28;46862;-66
2022/09/10 13:05:00;;;;;;;2.90;1.00;;;21.30;35.20;;;;;;4958944;28;46832;-66
2022/09/10 13:07:39;;;;;;;2.77;0.90;;;21.40;35.30;;;;;;4958435;28;48568;-65
2022/09/10 13:10:18;;;;;;;5.10;1.00;;;21.10;35.00;;;;;;4975301;28;46499;-66